^^
Datos históricos de la estación: Murcia-Puente Tocinos
Diario Informe para Enero 27, 2019 Unidades:  Métrico    Ingés   Ambas
Diario Semanal Mensual Anual
  Máxima: Mínima: Promedio:
Temperatura: 30.3 °C 20 °C 24.3 °C
Punto de rocio: 21.9 °C 16.2 °C 19.4 °C
Humedad: 91% 48.3% 76%
Velocidad viento: 30.9km/h 0km/h 6.7km/h
Racha viento: 56.3km/h - -
Viento- - SSE
Presión: 1015.2 hPa 1011.3 hPa -
Precipitación: 15.9 mm    
 
 
Tabla de datos para Enero 27, 2019
Hora Temperatura Punto de rocio Presión Viento Velocidad viento Racha viento Humedad Intensidad lluvia(por hora) Nubes
00:04 25.2 °C 21.6 °C 1013.6 hPa NNE 5 km/h 10 km/h 80.3% 0.0 mm
00:09 25.2 °C 21.6 °C 1013.2 hPa NNE 5 km/h 13 km/h 80.5% 0.0 mm
00:14 25.1 °C 21.6 °C 1013.2 hPa NNE 5 km/h 12.9 km/h 81% 0.0 mm
00:19 25.1 °C 21.6 °C 1013.3 hPa NNE 5.4 km/h 11.3 km/h 81% 0.0 mm
00:24 25.1 °C 21.8 °C 1013.3 hPa NE 6.5 km/h 14 km/h 81.9% 0.0 mm
00:29 24.9 °C 21.6 °C 1013.3 hPa NNE 7.1 km/h 14.8 km/h 82% 0.0 mm
00:34 24.9 °C 21.6 °C 1013.3 hPa NE 8.7 km/h 18 km/h 82.1% 0.0 mm
00:39 24.8 °C 21.7 °C 1012.9 hPa NE 9.1 km/h 19.3 km/h 83% 0.3 mm
00:44 24.8 °C 21.8 °C 1012.9 hPa NO 10 km/h 19.3 km/h 83.3% 0.3 mm
00:49 24.7 °C 21.8 °C 1012.9 hPa NNE 8.6 km/h 15.6 km/h 84% 0.3 mm
00:54 24.7 °C 21.8 °C 1012.9 hPa NNE 4.7 km/h 16.1 km/h 84.4% 0.5 mm
00:59 24.5 °C 21.9 °C 1012.9 hPa NNE 6.2 km/h 18.5 km/h 85.4% 0.5 mm
01:04 24.3 °C 21.9 °C 1012.9 hPa NNE 10 km/h 19.3 km/h 86.5% 0.5 mm
01:09 24.2 °C 21.9 °C 1012.5 hPa NNE 9.3 km/h 16.7 km/h 87% 0.5 mm
01:14 24.2 °C 21.9 °C 1012.5 hPa NE 7.6 km/h 22.2 km/h 87% 0.5 mm
01:19 24.1 °C 21.8 °C 1012.5 hPa NE 8.1 km/h 22.5 km/h 86.9% 0.5 mm
01:24 24.1 °C 21.6 °C 1012.2 hPa NE 9.5 km/h 16.7 km/h 86% 0.5 mm
01:29 24.1 °C 21.6 °C 1012.2 hPa NE 9.2 km/h 14.5 km/h 86% 0.5 mm
01:34 24.1 °C 21.6 °C 1012.2 hPa NE 8.4 km/h 11.9 km/h 86% 0.5 mm
01:39 24.1 °C 21.8 °C 1012.0 hPa ENE 7.5 km/h 11.3 km/h 86.9% 0.5 mm
01:44 24.1 °C 21.8 °C 1012.0 hPa ENE 5 km/h 4.8 km/h 87% 0.2 mm
01:49 24.1 °C 21.8 °C 1012.5 hPa NO 4.4 km/h 9.5 km/h 87% 0.2 mm
01:54 24 °C 21.7 °C 1012.5 hPa Oeste 2.9 km/h 9.7 km/h 87% 0.2 mm
01:59 24 °C 21.7 °C 1012.5 hPa OSO 3.4 km/h 8.4 km/h 87% 0.0 mm
02:04 24 °C 21.7 °C 1012.5 hPa SO 4.7 km/h 8 km/h 87% 0.0 mm
02:09 24 °C 21.7 °C 1012.5 hPa SO 4.4 km/h 8.7 km/h 87% 0.0 mm
02:14 24.1 °C 21.8 °C 1012.5 hPa OSO 3.9 km/h 10 km/h 87% 0.0 mm
02:19 24.2 °C 21.7 °C 1012.5 hPa OSO 4.2 km/h 9.7 km/h 86.2% 0.0 mm
02:24 24.2 °C 21.7 °C 1012.4 hPa OSO 5 km/h 8 km/h 86% 0.0 mm
02:29 24.3 °C 21.8 °C 1012.4 hPa OSO 4.4 km/h 6.4 km/h 86% 0.0 mm
02:34 24.3 °C 21.8 °C 1012.4 hPa SSO 2.9 km/h 7.4 km/h 86% 0.0 mm
02:39 24.3 °C 21.9 °C 1012.1 hPa Este 2.7 km/h 8 km/h 86% 0.0 mm
02:44 24.3 °C 21.8 °C 1012.1 hPa ESE 2.2 km/h 8.4 km/h 86% 0.0 mm
02:49 24.2 °C 21.7 °C 1012.1 hPa Este 2.7 km/h 8 km/h 86% 0.0 mm
02:54 24.1 °C 21.7 °C 1011.9 hPa Este 3.9 km/h 5.8 km/h 86.8% 0.0 mm
02:59 24.1 °C 21.8 °C 1011.9 hPa SE 3.7 km/h 7.4 km/h 87% 0.0 mm
03:04 24.1 °C 21.8 °C 1012.1 hPa SSE 3.2 km/h 8 km/h 87.3% 0.0 mm
03:09 24 °C 21.7 °C 1012.1 hPa Sur 3.4 km/h 8 km/h 87% 0.0 mm
03:14 23.9 °C 21.7 °C 1012.1 hPa Sur 3.9 km/h 8 km/h 87.1% 0.0 mm
03:19 23.9 °C 21.8 °C 1012.1 hPa Sur 2.8 km/h 3.2 km/h 88% 0.0 mm
03:24 23.9 °C 21.8 °C 1011.6 hPa Calm   8.4 km/h 87.8% 0.0 mm
03:29 24 °C 21.7 °C 1011.6 hPa ONO 0.7 km/h 8 km/h 87% 0.0 mm
03:34 24 °C 21.7 °C 1011.6 hPa Oeste 2.9 km/h 8 km/h 87% 0.0 mm
03:39 24 °C 21.6 °C 1011.3 hPa NO 2.2 km/h 4.8 km/h 86.6% 0.0 mm
03:44 24 °C 21.6 °C 1011.3 hPa Calm   10.3 km/h 86.5% 0.0 mm
03:49 24 °C 21.8 °C 1011.5 hPa SE 1.3 km/h 11.3 km/h 87.4% 0.0 mm
03:54 23.9 °C 21.8 °C 1011.5 hPa SE 4.7 km/h 11.1 km/h 88.2% 0.0 mm
03:59 23.8 °C 21.9 °C 1011.5 hPa SE 5.2 km/h 11.9 km/h 89% 0.0 mm
04:04 23.7 °C 21.8 °C 1011.7 hPa Este 6.5 km/h 11.3 km/h 89% 0.0 mm
04:09 23.6 °C 21.7 °C 1011.7 hPa ESE 6.3 km/h 10 km/h 89% 0.0 mm
04:14 23.6 °C 21.8 °C 1011.7 hPa SE 5.8 km/h 9.7 km/h 89.6% 0.0 mm
04:19 23.6 °C 21.8 °C 1012.0 hPa SSE 5.3 km/h 9.7 km/h 89.8% 0.0 mm
04:24 23.6 °C 21.7 °C 1012.0 hPa SSE 3.9 km/h 8 km/h 89% 0.0 mm
04:29 23.6 °C 21.7 °C 1012.0 hPa SSE 3.6 km/h 8.4 km/h 89.1% 0.0 mm
04:34 23.7 °C 21.8 °C 1012.4 hPa Sur 2.9 km/h 9.5 km/h 89% 0.0 mm
04:39 23.8 °C 21.8 °C 1012.4 hPa Sur 4 km/h 11.9 km/h 88.7% 0.0 mm
04:44 23.8 °C 21.8 °C 1012.4 hPa Sur 6.9 km/h 11.3 km/h 88.7% 0.3 mm
04:49 23.8 °C 21.8 °C 1012.6 hPa Sur 7.1 km/h 13.7 km/h 88.4% 0.8 mm
04:54 23.8 °C 21.9 °C 1012.6 hPa SO 7.6 km/h 14.5 km/h 89% 1.0 mm
04:59 23.8 °C 21.9 °C 1012.6 hPa Oeste 7.4 km/h 12.9 km/h 89% 1.0 mm
05:04 23.8 °C 21.9 °C 1012.6 hPa ONO 6.9 km/h 9.7 km/h 89.3% 1.0 mm
05:09 23.8 °C 21.9 °C 1011.9 hPa North 6 km/h 9.5 km/h 89.1% 1.0 mm
05:14 23.7 °C 21.9 °C 1011.9 hPa NE 3.2 km/h 11.1 km/h 90% 1.0 mm
05:19 23.6 °C 21.9 °C 1011.9 hPa NE 3.6 km/h 11.3 km/h 90% 1.0 mm
05:24 23.5 °C 21.8 °C 1011.8 hPa Oeste 4.7 km/h 10 km/h 90% 1.0 mm
05:29 23.5 °C 21.8 °C 1011.8 hPa SO 4.7 km/h 11.1 km/h 90% 1.0 mm
05:34 23.4 °C 21.7 °C 1012.3 hPa SO 5 km/h 11.3 km/h 90% 1.0 mm
05:39 23.4 °C 21.7 °C 1012.3 hPa OSO 5.2 km/h 10 km/h 90% 1.0 mm
05:44 23.5 °C 21.7 °C 1012.3 hPa OSO 5.8 km/h 14.8 km/h 89.7% 1.0 mm
05:49 23.6 °C 21.6 °C 1012.3 hPa Oeste 5.8 km/h 14.8 km/h 89% 0.7 mm
05:54 23.6 °C 21.7 °C 1012.1 hPa OSO 5.8 km/h 12.9 km/h 89% 0.2 mm
05:59 23.7 °C 21.8 °C 1012.1 hPa OSO 6 km/h 11.3 km/h 89% 0.0 mm
06:04 23.7 °C 21.8 °C 1012.2 hPa Oeste 6.5 km/h 9.7 km/h 89% 0.0 mm
06:09 23.7 °C 21.7 °C 1012.2 hPa ONO 5.6 km/h 13 km/h 88.3% 0.0 mm
06:14 23.6 °C 21.1 °C 1012.2 hPa ONO 3.2 km/h 13.7 km/h 86.3% 0.0 mm
06:19 23.5 °C 20.6 °C 1012.3 hPa ONO 5 km/h 18.5 km/h 84.1% 0.0 mm
06:24 23.4 °C 20.2 °C 1012.3 hPa Oeste 9.5 km/h 19.3 km/h 82.2% 0.0 mm
06:29 23.3 °C 19.8 °C 1012.3 hPa OSO 8.8 km/h 14.5 km/h 80.9% 0.0 mm
06:34 23.3 °C 19.7 °C 1012.7 hPa ONO 6.9 km/h 11.9 km/h 80.2% 0.0 mm
06:39 23.3 °C 19.3 °C 1012.7 hPa Oeste 6.4 km/h 17.2 km/h 78.3% 0.0 mm
06:44 23.2 °C 18.6 °C 1012.7 hPa ONO 5 km/h 17.7 km/h 75.4% 0.0 mm
06:49 23.1 °C 18.4 °C 1012.7 hPa OSO 6 km/h 16.1 km/h 75% 0.0 mm
06:54 23 °C 18.5 °C 1012.7 hPa Oeste 8.7 km/h 11.9 km/h 75.6% 0.0 mm
06:59 23 °C 18.6 °C 1012.7 hPa ONO 7.5 km/h 11.3 km/h 76% 0.0 mm
07:04 22.9 °C 18.5 °C 1012.8 hPa SSO 5 km/h 9.5 km/h 76% 0.0 mm
07:09 22.9 °C 18.5 °C 1012.8 hPa SSO 5 km/h 11.1 km/h 76% 0.0 mm
07:14 22.9 °C 18.2 °C 1012.8 hPa SSO 5 km/h 12.2 km/h 75% 0.0 mm
07:19 22.9 °C 18.1 °C 1012.9 hPa SO 5.5 km/h 12.9 km/h 74.4% 0.0 mm
07:24 22.9 °C 18 °C 1012.9 hPa SO 6.9 km/h 9.7 km/h 74% 0.0 mm
07:29 23 °C 18 °C 1012.9 hPa SO 6.8 km/h 13.7 km/h 73.7% 0.0 mm
07:34 22.9 °C 17.5 °C 1013.1 hPa OSO 6.5 km/h 14.5 km/h 71.6% 0.0 mm
07:39 23 °C 17.4 °C 1013.1 hPa OSO 7 km/h 16.7 km/h 71% 0.0 mm
07:44 23 °C 17.5 °C 1013.1 hPa OSO 8.4 km/h 16.1 km/h 71.1% 0.0 mm
07:49 23 °C 17.6 °C 1013.1 hPa ONO 7.5 km/h 11.3 km/h 71.6% 0.0 mm
07:54 23 °C 17.6 °C 1013.0 hPa OSO 5 km/h 14.8 km/h 71.8% 0.0 mm
07:59 23 °C 17.5 °C 1013.0 hPa OSO 5.6 km/h 14.5 km/h 71.3% 0.0 mm
08:04 23 °C 17.4 °C 1013.0 hPa SO 6.9 km/h 14.5 km/h 71% 0.0 mm
08:09 23 °C 17.4 °C 1013.0 hPa OSO 6.6 km/h 11.3 km/h 71% 0.0 mm
08:14 23 °C 17.5 °C 1013.0 hPa OSO 5.8 km/h 11.3 km/h 71.1% 0.0 mm
08:19 23.1 °C 17.7 °C 1013.0 hPa OSO 6.1 km/h 13 km/h 71.7% 0.0 mm
08:24 23.1 °C 17.6 °C 1013.0 hPa OSO 6.9 km/h 12.9 km/h 71.1% 0.0 mm
08:29 23.2 °C 17.4 °C 1013.0 hPa Oeste 6.9 km/h 14.8 km/h 70.1% 0.0 mm
08:34 23.2 °C 17.5 °C 1013.1 hPa Oeste 6.9 km/h 14.8 km/h 70% 0.0 mm
08:39 23.3 °C 17.5 °C 1013.1 hPa Oeste 7.1 km/h 14.5 km/h 70% 0.0 mm
08:44 23.3 °C 17.5 °C 1013.1 hPa OSO 7.6 km/h 13.7 km/h 70% 0.0 mm
08:49 23.2 °C 17.4 °C 1013.1 hPa OSO 7.4 km/h 14.5 km/h 70% 0.0 mm
08:54 23.2 °C 17.4 °C 1013.0 hPa OSO 6.9 km/h 13 km/h 70% 0.0 mm
08:59 23.2 °C 17.4 °C 1013.0 hPa Oeste 7.4 km/h 13.7 km/h 70% 0.0 mm
09:04 23.1 °C 17.4 °C 1013.0 hPa Oeste 8.4 km/h 14.5 km/h 70% 0.0 mm
09:09 23.1 °C 17.5 °C 1012.7 hPa OSO 7.7 km/h 11.3 km/h 71% 0.0 mm
09:14 23.1 °C 17.4 °C 1012.7 hPa SO 5.8 km/h 10 km/h 70.3% 0.0 mm
09:19 23.2 °C 17.2 °C 1012.8 hPa SO 5.6 km/h 11.9 km/h 69% 0.0 mm
09:24 23.3 °C 17.3 °C 1012.8 hPa SSO 5 km/h 11.3 km/h 69% 0.0 mm
09:29 23.4 °C 17.2 °C 1012.8 hPa SSO 5.4 km/h 10 km/h 68.1% 0.0 mm
09:34 23.4 °C 17.1 °C 1013.2 hPa SO 6.5 km/h 11.1 km/h 67.7% 0.0 mm
09:39 23.5 °C 17 °C 1013.2 hPa SSO 6.5 km/h 11.3 km/h 67% 0.0 mm
09:44 23.5 °C 17 °C 1013.2 hPa SSO 6.5 km/h 14.8 km/h 67% 0.0 mm
09:49 23.6 °C 17.1 °C 1013.2 hPa SSO 7.1 km/h 14.5 km/h 66.8% 0.0 mm
09:54 23.7 °C 17.2 °C 1013.0 hPa SSO 8.7 km/h 14.8 km/h 66.8% 0.0 mm
09:59 23.8 °C 17.2 °C 1013.0 hPa SSO 8.6 km/h 14.5 km/h 66.9% 0.0 mm
10:04 23.9 °C 17.2 °C 1013.0 hPa SSO 8.4 km/h 14 km/h 66.2% 0.0 mm
10:09 24.2 °C 17.2 °C 1012.8 hPa SSO 8 km/h 14.8 km/h 65.1% 0.0 mm
10:14 24.3 °C 17.2 °C 1012.8 hPa OSO 6.9 km/h 14.5 km/h 64.6% 0.0 mm
10:19 24.4 °C 17.2 °C 1012.9 hPa Oeste 6.9 km/h 13 km/h 64.2% 0.0 mm
10:24 24.6 °C 17.4 °C 1012.9 hPa Oeste 6.9 km/h 12.9 km/h 64.5% 0.0 mm
10:29 24.6 °C 17.4 °C 1012.9 hPa NO 6.6 km/h 11.9 km/h 64.2% 0.0 mm
10:34 24.7 °C 17.4 °C 1013.2 hPa OSO 5.8 km/h 13 km/h 64% 0.0 mm
10:39 24.8 °C 17.5 °C 1013.2 hPa SO 6 km/h 13 km/h 64% 0.0 mm
10:44 24.8 °C 17.6 °C 1013.2 hPa SO 6.5 km/h 12.9 km/h 64% 0.0 mm
10:49 25.2 °C 17.7 °C 1013.2 hPa OSO 6.5 km/h 11.3 km/h 63.3% 0.0 mm
10:54 25.3 °C 17.8 °C 1013.1 hPa Oeste 6.5 km/h 11.3 km/h 62.9% 0.0 mm
10:59 25.7 °C 17.8 °C 1013.1 hPa OSO 6.6 km/h 15.6 km/h 61.9% 0.0 mm
11:04 25.8 °C 17.8 °C 1013.1 hPa SSO 6.9 km/h 16.1 km/h 61.1% 0.0 mm
11:09 25.9 °C 17.7 °C 1013.1 hPa Oeste 7.3 km/h 14.5 km/h 60.5% 0.0 mm
11:14 26.2 °C 17.9 °C 1013.1 hPa SO 8.4 km/h 13 km/h 60.4% 0.0 mm
11:19 26.3 °C 17.9 °C 1013.3 hPa Oeste 7.4 km/h 12.9 km/h 60% 0.0 mm
11:24 26.7 °C 17.9 °C 1013.3 hPa SO 5 km/h 11.9 km/h 58.8% 0.0 mm
11:29 26.7 °C 18 °C 1013.3 hPa OSO 5.2 km/h 14.8 km/h 59.1% 0.0 mm
11:34 26.7 °C 18 °C 1013.3 hPa OSO 5.8 km/h 16.7 km/h 58.8% 0.0 mm
11:39 26.7 °C 18 °C 1013.3 hPa ONO 6.5 km/h 16.1 km/h 58.8% 0.0 mm
11:44 26.8 °C 18.2 °C 1013.3 hPa OSO 8.4 km/h 11.3 km/h 59% 0.0 mm
11:49 27.1 °C 18.2 °C 1013.3 hPa Sur 7.8 km/h 15.6 km/h 58.4% 0.0 mm
11:54 27.3 °C 18.3 °C 1013.0 hPa Sur 6.5 km/h 16.1 km/h 58% 0.0 mm
11:59 27.4 °C 18.5 °C 1013.0 hPa SSO 7.1 km/h 16.1 km/h 58.5% 0.0 mm
12:04 27.4 °C 18.5 °C 1013.0 hPa SSO 8.7 km/h 16.1 km/h 58.4% 0.0 mm
12:09 27.6 °C 18.7 °C 1012.7 hPa SO 8.4 km/h 13 km/h 58.6% 0.0 mm
12:14 27.6 °C 18.5 °C 1012.7 hPa SO 7.6 km/h 13 km/h 57.6% 0.0 mm
12:19 27.7 °C 18.6 °C 1012.7 hPa SSO 7.4 km/h 9.7 km/h 57.6% 0.0 mm
12:24 27.8 °C 18.7 °C 1012.7 hPa SO 6.9 km/h 10 km/h 57.5% 0.0 mm
12:29 28.1 °C 18.7 °C 1012.7 hPa ESE 6.1 km/h 9.7 km/h 56.7% 0.0 mm
12:34 28.6 °C 18.8 °C 1012.7 hPa ENE 3.9 km/h 11.1 km/h 55.5% 0.0 mm
12:39 28.7 °C 18.8 °C 1012.6 hPa ONO 4.1 km/h 11.3 km/h 54.9% 0.0 mm
12:44 28.8 °C 18.6 °C 1012.6 hPa Sur 4.7 km/h 11.9 km/h 54.1% 0.0 mm
12:49 28.8 °C 18.7 °C 1012.6 hPa SE 4.7 km/h 11.3 km/h 54.4% 0.0 mm
12:54 29 °C 18.8 °C 1012.6 hPa ESE 4.7 km/h 8 km/h 54% 0.0 mm
12:59 29.3 °C 18.9 °C 1012.6 hPa SSO 4.2 km/h 13 km/h 53.4% 0.0 mm
13:04 29.4 °C 18.8 °C 1012.7 hPa SE 3.2 km/h 13 km/h 52.8% 0.0 mm
13:09 29.3 °C 18.7 °C 1012.7 hPa ESE 4.1 km/h 13.7 km/h 52.8% 0.0 mm
13:14 29.3 °C 18.9 °C 1012.7 hPa NE 6.5 km/h 14.5 km/h 53.5% 0.0 mm
13:19 29.4 °C 18.9 °C 1012.7 hPa SE 6.6 km/h 19 km/h 53.3% 0.0 mm
13:24 29.4 °C 18.8 °C 1012.6 hPa SE 6.9 km/h 19.3 km/h 52.8% 0.0 mm
13:29 29.4 °C 18.6 °C 1012.6 hPa SE 7.8 km/h 19.3 km/h 52.5% 0.0 mm
13:34 29.3 °C 18.7 °C 1012.6 hPa SSE 10.3 km/h 14.5 km/h 53% 0.0 mm
13:39 29.3 °C 18.8 °C 1012.6 hPa SSE 8.9 km/h 13 km/h 53% 0.0 mm
13:44 29.4 °C 18.7 °C 1012.6 hPa SE 5 km/h 19 km/h 52.6% 0.0 mm
13:49 29.4 °C 18.7 °C 1012.6 hPa ESE 6 km/h 19.3 km/h 52.7% 0.0 mm
13:54 29.4 °C 18.5 °C 1012.3 hPa Este 8.7 km/h 16.1 km/h 52.1% 0.0 mm
13:59 29.6 °C 18.6 °C 1012.3 hPa Este 8.7 km/h 16.1 km/h 51.8% 0.0 mm
14:04 29.6 °C 18.5 °C 1012.3 hPa ENE 8.7 km/h 16.1 km/h 51.2% 0.0 mm
14:09 29.6 °C 18.3 °C 1012.2 hPa NE 9.1 km/h 20.4 km/h 50.7% 0.0 mm
14:14 29.6 °C 18.4 °C 1012.2 hPa NE 10 km/h 20.9 km/h 50.9% 0.0 mm
14:19 29.8 °C 18.4 °C 1012.2 hPa ENE 9.5 km/h 13 km/h 50.6% 0.0 mm
14:24 29.8 °C 18.1 °C 1012.0 hPa ESE 8.4 km/h 12.9 km/h 49.4% 0.0 mm
14:29 29.8 °C 18 °C 1012.0 hPa ENE 7.9 km/h 11.3 km/h 49% 0.0 mm
14:34 30 °C 17.9 °C 1012.0 hPa ENE 6.5 km/h 11.3 km/h 48.3% 0.0 mm
14:39 30.2 °C 18.2 °C 1011.8 hPa Este 6.5 km/h 13.7 km/h 48.5% 0.0 mm
14:44 30.3 °C 19.1 °C 1011.8 hPa ENE 6.5 km/h 23.7 km/h 51.2% 0.0 mm
14:49 30.2 °C 19.2 °C 1011.8 hPa ENE 7.8 km/h 24.1 km/h 51.6% 0.0 mm
14:54 30.2 °C 19.1 °C 1011.5 hPa NE 11.1 km/h 24.1 km/h 51.4% 0.0 mm
14:59 30.2 °C 19.2 °C 1011.5 hPa Este 11.7 km/h 26.2 km/h 51.5% 0.0 mm
15:04 30.3 °C 19.1 °C 1011.7 hPa Este 13 km/h 25.7 km/h 51.3% 0.0 mm
15:09 30.2 °C 18.9 °C 1011.7 hPa ENE 12.7 km/h 24.5 km/h 50.9% 0.0 mm
15:14 29.9 °C 18.8 °C 1011.7 hPa NE 11.9 km/h 30.6 km/h 51.3% 0.0 mm
15:19 29.9 °C 18.8 °C 1011.7 hPa ENE 12.7 km/h 32.3 km/h 51.2% 0.0 mm
15:24 29.7 °C 18.7 °C 1011.3 hPa Este 14.8 km/h 33.8 km/h 51.8% 0.0 mm
15:29 29.5 °C 18.6 °C 1011.3 hPa NE 15 km/h 33.8 km/h 52% 0.0 mm
15:34 29.3 °C 18.7 °C 1011.3 hPa ENE 15.6 km/h 29.6 km/h 52.8% 0.0 mm
15:39 29.1 °C 18.6 °C 1011.3 hPa ENE 15.2 km/h 29 km/h 53.2% 0.0 mm
15:44 28.9 °C 18.7 °C 1011.3 hPa ENE 14 km/h 27.8 km/h 54% 0.0 mm
15:49 28.8 °C 18.7 °C 1011.6 hPa ENE 14.2 km/h 28.6 km/h 54.5% 0.0 mm
15:54 28.7 °C 19 °C 1011.6 hPa NE 14.8 km/h 36.2 km/h 55.9% 0.0 mm
15:59 28.3 °C 18.9 °C 1011.6 hPa NE 16.4 km/h 55.4 km/h 56.6% 0.0 mm
16:04 27 °C 16.7 °C 1011.8 hPa NE 19.8 km/h 56.3 km/h 53.3% 0.0 mm
16:09 26 °C 16.2 °C 1011.8 hPa NE 22.7 km/h 51.8 km/h 54.7% 0.0 mm
16:14 25 °C 16.5 °C 1011.8 hPa ENE 30.9 km/h 51.5 km/h 59.2% 0.8 mm
16:19 23.9 °C 17.1 °C 1013.1 hPa ESE 26.9 km/h 29.6 km/h 66% 1.6 mm
16:24 22.2 °C 17.3 °C 1013.1 hPa Este 16.1 km/h 31.7 km/h 73.8% 3.6 mm
16:29 21.2 °C 17.5 °C 1013.1 hPa Este 16 km/h 32.2 km/h 79.6% 3.6 mm
16:34 20.6 °C 17.5 °C 1013.1 hPa ESE 15.6 km/h 25.7 km/h 82.6% 3.6 mm
16:39 20.4 °C 17.8 °C 1013.1 hPa Este 14.3 km/h 24.1 km/h 85.2% 4.6 mm
16:44 20.3 °C 18 °C 1013.1 hPa Sur 11.1 km/h 19 km/h 86.5% 5.2 mm
16:49 20.3 °C 18.2 °C 1013.9 hPa Sur 11.4 km/h 20.4 km/h 87.5% 6.4 mm
16:54 20.3 °C 18.4 °C 1013.9 hPa SSE 12.2 km/h 20.9 km/h 88.6% 7.7 mm
16:59 20.5 °C 18.7 °C 1013.9 hPa SE 12.5 km/h 22.5 km/h 89.7% 10.3 mm
17:04 20.5 °C 18.8 °C 1013.9 hPa SE 13 km/h 22.5 km/h 90% 11.8 mm
17:09 20.2 °C 18.6 °C 1013.6 hPa SSE 13.2 km/h 20.9 km/h 90.3% 12.3 mm
17:14 20.2 °C 18.7 °C 1013.6 hPa SSO 13.7 km/h 20.9 km/h 91% 12.3 mm
17:19 20.2 °C 18.7 °C 1013.7 hPa SSO 13.5 km/h 24.1 km/h 91% 12.3 mm
17:24 20.2 °C 18.7 °C 1013.7 hPa Sur 13 km/h 24.1 km/h 91% 11.2 mm
17:29 20.1 °C 18.4 °C 1013.7 hPa Sur 13.2 km/h 22.5 km/h 90% 10.3 mm
17:34 20 °C 18.2 °C 1013.7 hPa Sur 13.7 km/h 22.5 km/h 89.6% 10.5 mm
17:39 20 °C 18.1 °C 1013.0 hPa SSO 13.2 km/h 19.3 km/h 89.1% 10.5 mm
17:44 20.1 °C 18.1 °C 1013.0 hPa Sur 11.9 km/h 22.2 km/h 88.3% 9.5 mm
17:49 20.3 °C 18.3 °C 1013.0 hPa SO 11.5 km/h 22.5 km/h 88.3% 8.7 mm
17:54 20.5 °C 18.7 °C 1013.0 hPa NNO 10.3 km/h 14.5 km/h 89.4% 7.4 mm
17:59 20.8 °C 19.1 °C 1013.0 hPa Este 8 km/h 9.7 km/h 89.9% 6.2 mm
18:04 20.8 °C 18.8 °C 1013.0 hPa SO 2.9 km/h 8.7 km/h 88.1% 3.9 mm
18:09 21 °C 18.9 °C 1013.0 hPa ONO 3.4 km/h 9.7 km/h 87.6% 2.6 mm
18:14 21.2 °C 19 °C 1013.0 hPa NNO 4.7 km/h 9.7 km/h 87% 2.1 mm
18:19 21.4 °C 19.2 °C 1013.1 hPa North 4.7 km/h 9.5 km/h 86.9% 1.3 mm
18:24 21.6 °C 19.2 °C 1013.1 hPa NNO 5 km/h 13 km/h 86.4% 1.1 mm
18:29 21.7 °C 19.3 °C 1013.1 hPa NNO 5.7 km/h 14.8 km/h 86% 0.5 mm
18:34 21.7 °C 19.3 °C 1013.1 hPa NNO 7.6 km/h 14.5 km/h 86.3% 0.5 mm
18:39 21.9 °C 19.4 °C 1012.9 hPa NNO 7.4 km/h 11.3 km/h 86% 0.3 mm
18:44 22 °C 19.4 °C 1012.9 hPa NNO 6.9 km/h 11.3 km/h 85.7% 0.3 mm
18:49 22 °C 19.4 °C 1013.0 hPa NO 6.1 km/h 9.5 km/h 85% 0.3 mm
18:54 22.1 °C 19.5 °C 1013.0 hPa NO 3.9 km/h 9.7 km/h 85% 0.3 mm
18:59 22.2 °C 19.4 °C 1013.0 hPa ONO 4.2 km/h 9.7 km/h 84.5% 0.0 mm
19:04 22.2 °C 19.2 °C 1013.0 hPa ONO 5 km/h 8 km/h 83.2% 0.0 mm
19:09 22.3 °C 19.2 °C 1012.9 hPa Oeste 4.9 km/h 9.3 km/h 82.5% 0.0 mm
19:14 22.3 °C 19 °C 1012.9 hPa Oeste 4.7 km/h 9.7 km/h 81.5% 0.0 mm
19:19 22.3 °C 19.1 °C 1013.2 hPa OSO 4.4 km/h 9.7 km/h 81.8% 0.0 mm
19:24 22.4 °C 19.2 °C 1013.2 hPa SSO 3.9 km/h 6.4 km/h 82% 0.0 mm
19:29 22.5 °C 19.1 °C 1013.2 hPa Sur 2.8 km/h 6.4 km/h 81.3% 0.0 mm
19:34 22.6 °C 19.1 °C 1013.2 hPa Calm   11.9 km/h 80.8% 0.0 mm
19:39 22.7 °C 19.1 °C 1013.1 hPa SSO 1.6 km/h 11.3 km/h 80.2% 0.0 mm
19:44 22.7 °C 19.3 °C 1013.1 hPa SSO 5.8 km/h 9.7 km/h 80.8% 0.0 mm
19:49 22.9 °C 19.5 °C 1013.1 hPa OSO 4.2 km/h 1.6 km/h 81% 0.0 mm
19:54 23.1 °C 19.6 °C 1013.0 hPa Calm     81% 0.0 mm
19:59 23.2 °C 19.5 °C 1013.0 hPa Calm     79.9% 0.0 mm
20:04 23.3 °C 19.6 °C 1013.3 hPa Calm   8.7 km/h 79.5% 0.0 mm
20:09 23.4 °C 19.7 °C 1013.3 hPa NE 0.7 km/h 9.7 km/h 79.6% 0.0 mm
20:14 23.3 °C 19.7 °C 1013.3 hPa ESE 2.9 km/h 9.7 km/h 80% 0.0 mm
20:19 23.3 °C 19.8 °C 1013.4 hPa SE 3.2 km/h 8.4 km/h 80.9% 0.0 mm
20:24 23.3 °C 19.8 °C 1013.4 hPa SE 3.9 km/h 8.4 km/h 81% 0.0 mm
20:29 23.2 °C 19.8 °C 1013.4 hPa SE 4.2 km/h 8 km/h 81.3% 0.0 mm
20:34 23 °C 19.6 °C 1013.4 hPa SE 5 km/h 11.1 km/h 81.2% 0.0 mm
20:39 22.8 °C 19.6 °C 1013.4 hPa ESE 5.4 km/h 11.3 km/h 81.9% 0.0 mm
20:44 22.8 °C 19.6 °C 1013.4 hPa ESE 6.5 km/h 9.7 km/h 82.2% 0.0 mm
20:49 22.8 °C 19.8 °C 1013.5 hPa ESE 6 km/h 9.7 km/h 83% 0.0 mm
20:54 22.7 °C 19.7 °C 1013.5 hPa ESE 5 km/h 9.7 km/h 82.9% 0.0 mm
20:59 22.7 °C 19.7 °C 1013.5 hPa SE 5 km/h 9.7 km/h 83% 0.0 mm
21:04 22.7 °C 19.5 °C 1013.7 hPa Este 5 km/h 8.4 km/h 82.4% 0.0 mm
21:09 22.7 °C 19.4 °C 1013.7 hPa ENE 4.9 km/h 8 km/h 82% 0.0 mm
21:14 22.7 °C 19.4 °C 1013.7 hPa Este 4.7 km/h 10 km/h 82% 0.0 mm
21:19 22.7 °C 19.4 °C 1013.8 hPa ENE 4.7 km/h 11.1 km/h 82% 0.0 mm
21:24 22.7 °C 19.6 °C 1013.8 hPa Este 5 km/h 11.3 km/h 82.8% 0.0 mm
21:29 22.7 °C 19.6 °C 1013.8 hPa Este 5 km/h 8.4 km/h 82.8% 0.0 mm
21:34 22.6 °C 19.4 °C 1014.2 hPa NE 5 km/h 10.3 km/h 82% 0.0 mm
21:39 22.5 °C 19.3 °C 1014.2 hPa NE 5.4 km/h 13 km/h 82% 0.0 mm
21:44 22.4 °C 19.2 °C 1014.2 hPa NE 6.5 km/h 15.6 km/h 82% 0.0 mm
21:49 22.4 °C 19.2 °C 1014.6 hPa NE 7.3 km/h 16.1 km/h 82% 0.0 mm
21:54 22.4 °C 19.2 °C 1014.6 hPa NNE 9.5 km/h 14.5 km/h 82.3% 0.0 mm
21:59 22.2 °C 19.4 °C 1014.6 hPa NE 8.9 km/h 13.7 km/h 83.7% 0.0 mm
22:04 22.1 °C 19.3 °C 1014.8 hPa NE 7.6 km/h 14.5 km/h 84% 0.0 mm
22:09 22.1 °C 19.3 °C 1014.8 hPa NE 7.4 km/h 13 km/h 84% 0.0 mm
22:14 22.1 °C 19.3 °C 1014.8 hPa ESE 6.9 km/h 12.9 km/h 84% 0.0 mm
22:19 22.1 °C 19.2 °C 1014.8 hPa ESE 6.8 km/h 11.3 km/h 83.6% 0.0 mm
22:24 22.1 °C 19 °C 1014.8 hPa ESE 6.5 km/h 11.1 km/h 82.9% 0.0 mm
22:29 22.1 °C 18.9 °C 1014.8 hPa ESE 6.3 km/h 11.3 km/h 82% 0.0 mm
22:34 22.2 °C 18.8 °C 1015.0 hPa ESE 5.8 km/h 9.7 km/h 81.3% 0.0 mm
22:39 22.3 °C 18.9 °C 1015.0 hPa ESE 5.3 km/h 8 km/h 81% 0.0 mm
22:44 22.3 °C 18.9 °C 1015.0 hPa NE 3.9 km/h 4.8 km/h 80.9% 0.0 mm
22:49 22.3 °C 19.1 °C 1015.0 hPa NE 2.8 km/h   82% 0.0 mm
22:54 22.3 °C 19.1 °C 1015.0 hPa Calm     82% 0.0 mm
22:59 22.3 °C 19 °C 1015.0 hPa Calm     82% 0.0 mm
23:04 22.2 °C 19.1 °C 1015.0 hPa Calm     82.4% 0.0 mm
23:09 22.2 °C 19 °C 1015.0 hPa Calm     82% 0.0 mm
23:14 22.1 °C 18.7 °C 1015.0 hPa Calm     81.2% 0.0 mm
23:19 22.1 °C 18.8 °C 1015.1 hPa Calm     81.5% 0.0 mm
23:24 22.1 °C 18.8 °C 1015.1 hPa Calm     81.6% 0.0 mm
23:29 22.1 °C 18.9 °C 1015.1 hPa Calm   6.4 km/h 82% 0.0 mm
23:34 22.1 °C 19 °C 1015.2 hPa Calm   8 km/h 83% 0.0 mm
23:39 22 °C 18.9 °C 1015.2 hPa Sur 1.3 km/h 8.4 km/h 82.2% 0.0 mm
23:44 22.1 °C 18.9 °C 1015.2 hPa SSE 4.7 km/h 8 km/h 82.3% 0.0 mm
23:49 22.1 °C 18.8 °C 1015.2 hPa ENE 4.2 km/h 7.6 km/h 81.6% 0.0 mm
23:54 22.1 °C 18.7 °C 1015.2 hPa North 2.9 km/h 8 km/h 81.3% 0.0 mm
23:59 22 °C 18.6 °C 1015.2 hPa NE 2.7 km/h 4.8 km/h 81% 0.0 mm
Murcia-Puente Tocinos, Espa?a
Compliments of Weather Underground - 3.25 mb

La estación de MeteoMurcia.com, publica sus datos en los siguientes proyectos:

Weather Underground PWS IMURCIAP2 Meteoclimatic www.awekas.at

Web Analytics

Clicky